Time;durP1;ratioP1;P1;durP2;ratioP2;P2;SDS_P1;SDS_P2;PMS_P1;PMS_P2;Temp;Humidity;BMP_temperature;BMP_pressure;BME280_temperature;BME280_humidity;BME280_pressure;Samples;Min_cycle;Max_cycle;Signal;HPM_P1;HPM_P2
2023/09/23 00:02:21;;;;;;;4.25;2.67;;;13.20;99.90;;;;;;5053533;28;20090;-52
2023/09/23 00:04:47;;;;;;;3.83;2.72;;;13.20;99.90;;;;;;5047510;28;20501;-53
2023/09/23 00:07:12;;;;;;;3.38;2.42;;;13.20;99.90;;;;;;5047146;28;20055;-54
2023/09/23 00:09:38;;;;;;;3.40;2.35;;;13.20;99.90;;;;;;5054612;28;20028;-50
2023/09/23 00:12:03;;;;;;;4.40;2.80;;;13.20;99.90;;;;;;5053148;28;20047;-52
2023/09/23 00:14:29;;;;;;;3.08;2.38;;;13.20;99.90;;;;;;5045583;28;20094;-53
2023/09/23 00:16:55;;;;;;;4.97;2.88;;;13.20;99.90;;;;;;5055148;28;20036;-52
2023/09/23 00:19:20;;;;;;;4.20;2.40;;;13.20;99.90;;;;;;5050094;28;20028;-51
2023/09/23 00:21:48;;;;;;;2.88;2.55;;;13.10;99.90;;;;;;5044910;28;20120;-52
2023/09/23 00:24:14;;;;;;;6.38;2.30;;;13.10;99.90;;;;;;5044282;28;20024;-51
2023/09/23 00:26:39;;;;;;;4.57;2.67;;;13.10;99.90;;;;;;5044373;28;20021;-50
2023/09/23 00:29:05;;;;;;;2.55;2.35;;;13.10;99.90;;;;;;5051197;28;20033;-51
2023/09/23 00:31:30;;;;;;;3.05;2.38;;;13.10;99.90;;;;;;5052702;28;20032;-51
2023/09/23 00:33:56;;;;;;;2.88;2.58;;;13.00;99.90;;;;;;5038874;28;20745;-53
2023/09/23 00:36:22;;;;;;;3.47;2.35;;;13.00;99.90;;;;;;5042663;28;21408;-51
2023/09/23 00:38:47;;;;;;;3.65;2.85;;;13.00;99.90;;;;;;5041738;28;20025;-49
2023/09/23 00:41:13;;;;;;;3.47;2.28;;;13.00;99.90;;;;;;5036664;28;20095;-50
2023/09/23 00:43:40;;;;;;;4.90;2.65;;;13.00;99.90;;;;;;5043107;28;20510;-49
2023/09/23 00:46:08;;;;;;;3.58;2.40;;;13.00;99.90;;;;;;5044343;28;20116;-54
2023/09/23 00:48:39;;;;;;;2.95;2.63;;;13.00;99.90;;;;;;5041597;28;20154;-51
2023/09/23 00:51:07;;;;;;;3.45;2.08;;;12.90;99.90;;;;;;5043539;28;20021;-47
2023/09/23 00:53:35;;;;;;;3.95;2.17;;;12.90;99.90;;;;;;5039895;28;20025;-50
2023/09/23 00:56:00;;;;;;;5.55;2.78;;;12.90;99.90;;;;;;5041429;28;20032;-50
2023/09/23 00:58:26;;;;;;;3.03;2.45;;;12.90;99.90;;;;;;5040223;28;20692;-49
2023/09/23 01:00:54;;;;;;;3.30;2.45;;;12.90;99.90;;;;;;5039959;28;20374;-51
2023/09/23 01:03:20;;;;;;;5.05;3.10;;;12.90;99.90;;;;;;5041364;28;20495;-49
2023/09/23 01:05:46;;;;;;;3.70;2.70;;;12.80;99.90;;;;;;5043604;28;20075;-50
2023/09/23 01:08:18;;;;;;;3.28;2.60;;;12.80;99.90;;;;;;5055208;28;20103;-52
2023/09/23 01:10:43;;;;;;;4.03;2.20;;;12.80;99.90;;;;;;5047054;28;20107;-50
2023/09/23 01:13:10;;;;;;;3.25;2.47;;;12.80;99.90;;;;;;5046676;28;20045;-51
2023/09/23 01:15:41;;;;;;;4.40;2.58;;;12.70;99.90;;;;;;5050344;28;20043;-50
2023/09/23 01:18:15;;;;;;;4.90;2.65;;;12.70;99.90;;;;;;5048116;28;20511;-50
2023/09/23 01:20:43;;;;;;;;;;;12.70;99.90;;;;;;5042444;28;20396;-51
2023/09/23 01:23:15;;;;;;;2.60;2.40;;;12.70;99.90;;;;;;5048076;28;19909;-52
2023/09/23 01:25:41;;;;;;;3.78;2.63;;;12.70;99.90;;;;;;5040932;28;20028;-53
2023/09/23 01:28:13;;;;;;;3.20;2.30;;;12.70;99.90;;;;;;5046956;28;20021;-51
2023/09/23 01:30:40;;;;;;;2.65;2.42;;;12.70;99.90;;;;;;5051984;28;20082;-49
2023/09/23 01:33:07;;;;;;;2.80;2.10;;;12.70;99.90;;;;;;5046877;28;20040;-52
2023/09/23 01:35:34;;;;;;;3.08;2.58;;;12.60;99.90;;;;;;5053418;28;20028;-50
2023/09/23 01:38:02;;;;;;;6.43;2.70;;;12.60;99.90;;;;;;5043556;28;20134;-53
2023/09/23 01:40:30;;;;;;;3.97;2.53;;;12.60;99.90;;;;;;5050419;28;20020;-51
2023/09/23 01:42:57;;;;;;;2.65;2.22;;;12.60;99.90;;;;;;5044070;28;20055;-52
2023/09/23 01:45:25;;;;;;;3.65;2.60;;;12.60;99.90;;;;;;5046456;28;20024;-49
2023/09/23 01:47:51;;;;;;;2.90;2.20;;;12.60;99.90;;;;;;5047422;28;20024;-54
2023/09/23 01:50:20;;;;;;;3.00;2.58;;;12.60;99.90;;;;;;5050044;28;20535;-47
2023/09/23 01:52:46;;;;;;;2.95;2.28;;;12.60;99.90;;;;;;5042759;28;20119;-52
2023/09/23 01:55:12;;;;;;;2.13;1.92;;;12.70;99.90;;;;;;5045495;28;20112;-52
2023/09/23 01:57:40;;;;;;;2.33;2.00;;;12.70;99.90;;;;;;5047745;28;20025;-51
2023/09/23 02:00:08;;;;;;;2.35;2.10;;;12.70;99.90;;;;;;5048789;28;20393;-53
2023/09/23 02:02:33;;;;;;;3.33;1.80;;;12.70;99.90;;;;;;5050058;28;20063;-53
2023/09/23 02:04:59;;;;;;;5.70;2.53;;;12.70;99.90;;;;;;5050289;28;20017;-49
2023/09/23 02:07:29;;;;;;;3.50;1.85;;;12.70;99.90;;;;;;5048570;28;20021;-51
2023/09/23 02:09:54;;;;;;;2.33;1.90;;;12.70;99.90;;;;;;5044692;28;20047;-51
2023/09/23 02:12:21;;;;;;;3.10;1.90;;;12.70;99.90;;;;;;5049879;28;20481;-52
2023/09/23 02:14:46;;;;;;;1.88;1.70;;;12.70;99.90;;;;;;5047649;28;20021;-48
2023/09/23 02:17:12;;;;;;;3.00;2.38;;;12.70;99.90;;;;;;5046994;28;20557;-47
2023/09/23 02:19:38;;;;;;;6.88;2.33;;;12.60;99.90;;;;;;5050364;28;20540;-50
2023/09/23 02:22:06;;;;;;;2.72;2.08;;;12.60;99.90;;;;;;5048211;28;20493;-53
2023/09/23 02:24:36;;;;;;;3.03;2.10;;;12.60;99.90;;;;;;5044740;28;20021;-50
2023/09/23 02:27:05;;;;;;;3.20;2.90;;;12.60;99.90;;;;;;5047036;28;20416;-51
2023/09/23 02:29:31;;;;;;;4.38;2.17;;;12.50;99.90;;;;;;5050116;28;20676;-47
2023/09/23 02:31:57;;;;;;;2.17;1.90;;;12.50;99.90;;;;;;5048238;28;20021;-50
2023/09/23 02:34:22;;;;;;;4.65;2.28;;;12.50;99.90;;;;;;5045043;28;20036;-52
2023/09/23 02:36:51;;;;;;;3.50;2.38;;;12.50;99.90;;;;;;5044155;28;20033;-52
2023/09/23 02:39:20;;;;;;;3.15;2.22;;;12.50;99.90;;;;;;5043213;28;20032;-51
2023/09/23 02:41:46;;;;;;;2.72;1.98;;;12.40;99.90;;;;;;5045717;28;20059;-50
2023/09/23 02:44:19;;;;;;;2.88;2.20;;;12.40;99.90;;;;;;5049397;28;20035;-53
2023/09/23 02:46:52;;;;;;;2.50;2.00;;;12.40;99.90;;;;;;5043262;28;20163;-52
2023/09/23 02:49:19;;;;;;;3.08;2.33;;;12.50;99.90;;;;;;5047636;28;20072;-52
2023/09/23 02:51:45;;;;;;;2.63;2.10;;;12.50;99.90;;;;;;5048095;28;20017;-50
2023/09/23 02:54:13;;;;;;;6.88;2.70;;;12.50;99.90;;;;;;5048717;28;20123;-54
2023/09/23 02:56:40;;;;;;;2.63;2.40;;;12.50;99.90;;;;;;5050315;28;20029;-53
2023/09/23 02:59:13;;;;;;;3.45;2.45;;;12.50;99.90;;;;;;5049987;28;20021;-50
2023/09/23 03:01:45;;;;;;;3.67;2.67;;;12.50;99.90;;;;;;5045108;28;20044;-52
2023/09/23 03:04:16;;;;;;;2.53;2.33;;;12.50;99.90;;;;;;5049382;28;20016;-52
2023/09/23 03:07:01;;;;;;;4.43;2.67;;;12.50;99.90;;;;;;5047655;28;20016;-51
2023/09/23 03:09:32;;;;;;;2.72;2.20;;;12.50;99.90;;;;;;5044110;28;20476;-49
2023/09/23 03:11:59;;;;;;;3.95;2.40;;;12.50;99.90;;;;;;5045164;28;20016;-50
2023/09/23 03:14:38;;;;;;;4.00;2.75;;;12.50;99.90;;;;;;5046386;28;20086;-52
2023/09/23 03:17:04;;;;;;;6.07;2.50;;;12.50;99.90;;;;;;5040504;28;20094;-51
2023/09/23 03:19:32;;;;;;;2.97;2.40;;;12.40;99.90;;;;;;5049127;28;20086;-50
2023/09/23 03:21:58;;;;;;;3.75;2.95;;;12.40;99.90;;;;;;5044445;28;20035;-53
2023/09/23 03:24:28;;;;;;;4.60;2.50;;;12.40;99.90;;;;;;5043963;28;20128;-55
2023/09/23 03:26:56;;;;;;;2.97;2.50;;;12.40;99.90;;;;;;5047218;28;20013;-51
2023/09/23 03:29:22;;;;;;;2.47;2.20;;;12.30;99.90;;;;;;5049711;28;20044;-51
2023/09/23 03:31:48;;;;;;;2.45;2.17;;;12.30;99.90;;;;;;5045420;28;20028;-50
2023/09/23 03:34:14;;;;;;;3.25;2.55;;;12.30;99.90;;;;;;5047308;28;20396;-51
2023/09/23 03:36:41;;;;;;;4.68;2.45;;;12.30;99.90;;;;;;5043740;28;20031;-48
2023/09/23 03:39:08;;;;;;;3.22;2.20;;;12.20;99.90;;;;;;5048913;28;20028;-51
2023/09/23 03:41:35;;;;;;;4.70;2.03;;;12.30;99.90;;;;;;5049155;28;20078;-51
2023/09/23 03:44:03;;;;;;;5.45;2.63;;;12.30;99.90;;;;;;5043643;28;20110;-52
2023/09/23 03:46:29;;;;;;;5.20;2.10;;;12.20;99.90;;;;;;5048708;28;20126;-52
2023/09/23 03:48:54;;;;;;;2.55;2.20;;;12.20;99.90;;;;;;5046088;28;20769;-47
2023/09/23 03:51:20;;;;;;;3.50;2.65;;;12.20;99.90;;;;;;5047395;28;20029;-50
2023/09/23 03:53:48;;;;;;;2.63;1.90;;;12.10;99.90;;;;;;5045298;28;20499;-49
2023/09/23 03:56:13;;;;;;;3.72;2.38;;;12.10;99.90;;;;;;5054292;28;20017;-50
2023/09/23 03:58:39;;;;;;;3.03;2.40;;;12.10;99.90;;;;;;5052105;28;20035;-50
2023/09/23 04:01:08;;;;;;;2.78;1.95;;;12.10;99.90;;;;;;5047064;28;20033;-50
2023/09/23 04:03:34;;;;;;;2.65;2.13;;;12.00;99.90;;;;;;5047829;28;20033;-53
2023/09/23 04:06:00;;;;;;;2.80;2.00;;;12.00;99.90;;;;;;5047272;28;20378;-53
2023/09/23 04:08:26;;;;;;;2.50;2.28;;;12.00;99.90;;;;;;5049855;28;20028;-51
2023/09/23 04:10:52;;;;;;;4.32;2.42;;;12.00;99.90;;;;;;5049317;28;20392;-51
2023/09/23 04:13:18;;;;;;;4.60;2.70;;;11.90;99.90;;;;;;5050674;28;20087;-47
2023/09/23 04:15:44;;;;;;;2.25;2.05;;;11.90;99.90;;;;;;5048168;28;20443;-52
2023/09/23 04:18:10;;;;;;;2.47;2.03;;;11.90;99.90;;;;;;5050551;28;20036;-54
2023/09/23 04:20:36;;;;;;;3.92;1.73;;;11.80;99.90;;;;;;5050733;28;20392;-50
2023/09/23 04:23:02;;;;;;;3.25;1.63;;;11.80;99.90;;;;;;5051289;28;20074;-51
2023/09/23 04:25:27;;;;;;;3.20;2.30;;;11.70;99.90;;;;;;5050489;28;20033;-53
2023/09/23 04:27:53;;;;;;;1.92;1.40;;;11.80;99.90;;;;;;5048861;28;20081;-52
2023/09/23 04:30:19;;;;;;;2.30;1.80;;;11.70;99.90;;;;;;5048001;28;20040;-50
2023/09/23 04:32:45;;;;;;;4.97;2.03;;;11.80;99.90;;;;;;5045903;28;20080;-50
2023/09/23 04:35:18;;;;;;;2.15;1.95;;;11.80;99.90;;;;;;5050501;28;20093;-54
2023/09/23 04:37:44;;;;;;;1.50;1.30;;;11.80;99.90;;;;;;5048899;28;20036;-44
2023/09/23 04:40:12;;;;;;;2.20;1.80;;;11.80;99.90;;;;;;5046882;28;20033;-50
2023/09/23 04:42:39;;;;;;;2.28;1.52;;;11.80;99.90;;;;;;5049950;28;20020;-45
2023/09/23 04:45:05;;;;;;;2.72;1.50;;;11.80;99.90;;;;;;5050070;28;20070;-49
2023/09/23 04:47:32;;;;;;;1.60;1.50;;;11.80;99.90;;;;;;5046704;28;20017;-44
2023/09/23 04:50:00;;;;;;;2.70;1.80;;;11.80;99.90;;;;;;5049522;28;20028;-47
2023/09/23 04:52:27;;;;;;;2.80;2.13;;;11.80;99.90;;;;;;5043481;28;20025;-47
2023/09/23 04:54:56;;;;;;;3.20;1.52;;;11.70;99.90;;;;;;5047449;28;20037;-44
2023/09/23 04:57:22;;;;;;;3.35;2.13;;;11.70;99.90;;;;;;5049685;28;20027;-48
2023/09/23 04:59:48;;;;;;;2.53;1.42;;;11.80;99.90;;;;;;5048336;28;20123;-47
2023/09/23 05:02:13;;;;;;;3.78;1.48;;;11.70;99.90;;;;;;5046491;28;20536;-43
2023/09/23 05:04:39;;;;;;;2.40;1.85;;;11.80;99.90;;;;;;5053361;28;20028;-47
2023/09/23 05:07:05;;;;;;;2.25;1.90;;;11.70;99.90;;;;;;5045565;28;20025;-46
2023/09/23 05:09:31;;;;;;;1.50;1.25;;;11.70;99.90;;;;;;5050836;28;20033;-47
2023/09/23 05:11:57;;;;;;;1.60;1.50;;;11.70;99.90;;;;;;5048510;28;20103;-49
2023/09/23 05:14:25;;;;;;;2.25;1.80;;;11.70;99.90;;;;;;5045909;28;20047;-49
2023/09/23 05:16:51;;;;;;;4.63;1.58;;;11.70;99.90;;;;;;5049572;28;20044;-48
2023/09/23 05:19:19;;;;;;;2.97;1.50;;;11.70;99.90;;;;;;5046895;28;20054;-45
2023/09/23 05:21:45;;;;;;;4.13;1.75;;;11.70;99.90;;;;;;5048480;28;20017;-46
2023/09/23 05:24:11;;;;;;;2.20;1.30;;;11.70;99.90;;;;;;5047939;28;20044;-49
2023/09/23 05:26:37;;;;;;;3.63;1.60;;;11.60;99.90;;;;;;5050930;28;20170;-46
2023/09/23 05:29:03;;;;;;;1.40;1.10;;;11.60;99.90;;;;;;5050880;28;20029;-49
2023/09/23 05:31:29;;;;;;;2.28;1.75;;;11.70;99.90;;;;;;5047756;28;20636;-47
2023/09/23 05:33:54;;;;;;;1.40;1.23;;;11.70;99.90;;;;;;5045802;28;20070;-46
2023/09/23 05:36:20;;;;;;;1.98;1.40;;;11.70;99.90;;;;;;5048701;28;20105;-48
2023/09/23 05:38:47;;;;;;;1.77;1.52;;;11.70;99.90;;;;;;5052833;28;20473;-46
2023/09/23 05:41:13;;;;;;;1.58;1.35;;;11.80;99.90;;;;;;5044680;28;20017;-44
2023/09/23 05:43:39;;;;;;;1.30;1.20;;;11.90;99.90;;;;;;5050369;28;20052;-46
2023/09/23 05:46:05;;;;;;;1.45;1.35;;;11.90;99.90;;;;;;5047703;28;20369;-46
2023/09/23 05:48:31;;;;;;;2.17;1.52;;;12.20;99.90;;;;;;5041831;28;20373;-45
2023/09/23 05:51:04;;;;;;;2.30;1.45;;;12.50;99.90;;;;;;5048498;28;20031;-45
2023/09/23 05:53:30;;;;;;;0.88;0.88;;;12.70;99.90;;;;;;5044131;28;20107;-46
2023/09/23 05:55:56;;;;;;;1.73;1.10;;;12.90;99.90;;;;;;5048630;28;20560;-47
2023/09/23 05:58:21;;;;;;;1.05;0.95;;;13.10;99.90;;;;;;5045305;28;20048;-44
2023/09/23 06:00:47;;;;;;;2.03;0.95;;;13.30;99.90;;;;;;5050996;28;20036;-45
2023/09/23 06:03:12;;;;;;;1.15;1.02;;;13.50;99.90;;;;;;5048953;28;20021;-46
2023/09/23 06:05:39;;;;;;;1.40;1.00;;;13.80;99.90;;;;;;5041764;28;20043;-45
2023/09/23 06:08:05;;;;;;;0.95;0.90;;;14.30;99.90;;;;;;5048562;28;20033;-47
2023/09/23 06:10:31;;;;;;;1.85;1.00;;;14.80;99.90;;;;;;5048533;28;20036;-48
2023/09/23 06:12:57;;;;;;;1.38;0.73;;;15.40;99.90;;;;;;5046013;28;20028;-46
2023/09/23 06:15:22;;;;;;;0.80;0.70;;;16.20;99.90;;;;;;5045726;28;20093;-46
2023/09/23 06:17:48;;;;;;;1.23;0.63;;;17.00;99.90;;;;;;5044054;28;20587;-47
2023/09/23 06:20:13;;;;;;;2.92;0.82;;;17.80;99.90;;;;;;5049970;28;20051;-44
2023/09/23 06:22:40;;;;;;;0.98;0.73;;;18.50;99.90;;;;;;5044241;28;20512;-46
2023/09/23 06:25:06;;;;;;;1.65;1.02;;;18.90;99.90;;;;;;5048225;28;20048;-45
2023/09/23 06:27:31;;;;;;;1.75;0.82;;;19.30;99.90;;;;;;5045775;28;20081;-49
2023/09/23 06:29:57;;;;;;;0.68;0.63;;;19.50;99.90;;;;;;5045772;28;20028;-46
2023/09/23 06:32:22;;;;;;;0.70;0.63;;;19.90;99.90;;;;;;5046216;28;20131;-48
2023/09/23 06:34:47;;;;;;;1.05;0.63;;;19.90;99.10;;;;;;5038710;28;20048;-46
2023/09/23 06:37:14;;;;;;;1.10;0.90;;;20.40;99.00;;;;;;5048533;28;20040;-46
2023/09/23 06:39:40;;;;;;;0.73;0.73;;;20.80;95.20;;;;;;5052314;28;20392;-48
2023/09/23 06:42:06;;;;;;;0.60;0.50;;;21.20;95.00;;;;;;5042792;28;20032;-48
2023/09/23 06:44:31;;;;;;;0.50;0.45;;;21.80;94.60;;;;;;5049766;28;20494;-47
2023/09/23 06:46:56;;;;;;;1.77;0.80;;;21.80;92.30;;;;;;5036437;28;20040;-50
2023/09/23 06:49:22;;;;;;;1.70;0.70;;;21.30;93.20;;;;;;5049407;28;20393;-45
2023/09/23 06:51:48;;;;;;;1.52;0.52;;;20.80;92.40;;;;;;5047234;28;20111;-46
2023/09/23 06:54:13;;;;;;;1.40;0.70;;;20.40;90.50;;;;;;5042768;28;20029;-47
2023/09/23 06:56:39;;;;;;;1.30;0.70;;;19.90;91.80;;;;;;5046596;28;20476;-47
2023/09/23 06:59:04;;;;;;;1.98;0.95;;;19.30;90.60;;;;;;5050631;28;20523;-48
2023/09/23 07:01:30;;;;;;;1.65;0.80;;;18.90;91.60;;;;;;5042394;28;20082;-50
2023/09/23 07:03:55;;;;;;;1.42;0.75;;;19.00;91.10;;;;;;5048718;28;20036;-49
2023/09/23 07:06:21;;;;;;;0.82;0.70;;;19.10;90.50;;;;;;5050146;28;20140;-49
2023/09/23 07:08:46;;;;;;;0.70;0.70;;;19.40;89.70;;;;;;5045047;28;20039;-45
2023/09/23 07:11:15;;;;;;;1.88;0.75;;;19.90;90.50;;;;;;5047827;28;20028;-51
2023/09/23 07:13:40;;;;;;;1.27;0.80;;;20.50;89.70;;;;;;5044553;28;20111;-45
2023/09/23 07:16:11;;;;;;;2.78;0.63;;;20.90;87.60;;;;;;5052122;28;20480;-48
2023/09/23 07:18:37;;;;;;;1.83;0.70;;;21.00;86.30;;;;;;5050742;28;20032;-51
2023/09/23 07:21:04;;;;;;;5.05;0.77;;;21.30;86.50;;;;;;5045421;28;20025;-45
2023/09/23 07:23:29;;;;;;;1.08;0.68;;;21.50;84.40;;;;;;5045434;28;20033;-45
2023/09/23 07:25:55;;;;;;;0.75;0.50;;;21.80;85.40;;;;;;5043089;28;20037;-45
2023/09/23 07:28:20;;;;;;;0.73;0.55;;;21.80;80.10;;;;;;5047484;28;20028;-45
2023/09/23 07:30:46;;;;;;;2.25;0.82;;;21.80;72.90;;;;;;5050227;28;20028;-47
2023/09/23 07:33:11;;;;;;;1.08;0.60;;;21.80;80.60;;;;;;5047002;28;20398;-43
2023/09/23 07:35:37;;;;;;;1.65;0.60;;;21.90;78.80;;;;;;5044609;28;20048;-45
2023/09/23 07:38:03;;;;;;;0.70;0.60;;;21.90;79.80;;;;;;5054411;28;20063;-49
2023/09/23 07:40:31;;;;;;;0.35;0.35;;;21.80;78.50;;;;;;5042899;28;20032;-47
2023/09/23 07:42:57;;;;;;;0.75;0.40;;;21.80;72.10;;;;;;5049912;28;20037;-44
2023/09/23 07:45:23;;;;;;;0.68;0.47;;;21.70;75.70;;;;;;5049072;28;20476;-46
2023/09/23 07:47:49;;;;;;;0.95;0.60;;;21.90;77.50;;;;;;5041013;28;20035;-47
2023/09/23 07:50:15;;;;;;;1.75;0.70;;;21.90;75.70;;;;;;5051123;28;20111;-46
2023/09/23 07:52:40;;;;;;;1.50;0.70;;;22.00;74.90;;;;;;5047451;28;20039;-42
2023/09/23 07:55:06;;;;;;;2.05;1.10;;;21.90;74.50;;;;;;5047333;28;20036;-43
2023/09/23 07:57:32;;;;;;;1.67;0.88;;;21.80;72.40;;;;;;5043632;28;20116;-43
2023/09/23 07:59:58;;;;;;;0.63;0.47;;;21.70;72.00;;;;;;5055129;28;20043;-42
2023/09/23 08:02:24;;;;;;;0.52;0.30;;;21.80;73.20;;;;;;5053004;28;20043;-43
2023/09/23 08:04:49;;;;;;;2.88;0.70;;;22.00;72.20;;;;;;5043959;28;20033;-43
2023/09/23 08:07:15;;;;;;;1.77;0.50;;;21.90;71.00;;;;;;5054137;28;20024;-42
2023/09/23 08:09:40;;;;;;;0.82;0.50;;;21.90;71.40;;;;;;5045189;28;20079;-43
2023/09/23 08:12:06;;;;;;;1.10;0.70;;;21.70;70.90;;;;;;5047378;28;20081;-45
2023/09/23 08:14:31;;;;;;;1.40;0.68;;;21.70;71.30;;;;;;5044869;28;20083;-43
2023/09/23 08:16:57;;;;;;;0.95;0.60;;;21.50;69.00;;;;;;5047986;28;20017;-43
2023/09/23 08:19:23;;;;;;;1.02;0.80;;;21.50;70.10;;;;;;5051817;28;20037;-43
2023/09/23 08:21:49;;;;;;;1.20;0.50;;;21.40;69.50;;;;;;5055059;28;20521;-46
2023/09/23 08:24:14;;;;;;;1.75;0.70;;;21.40;70.20;;;;;;5047052;28;20229;-46
2023/09/23 08:26:40;;;;;;;1.83;0.60;;;21.40;68.70;;;;;;5053494;28;20040;-43
2023/09/23 08:29:06;;;;;;;0.88;0.60;;;21.40;68.70;;;;;;5050720;28;20028;-44
2023/09/23 08:31:31;;;;;;;1.33;0.85;;;21.30;67.80;;;;;;5048745;28;20028;-45
2023/09/23 08:33:58;;;;;;;1.10;0.70;;;21.40;67.80;;;;;;5045616;28;20053;-43
2023/09/23 08:36:24;;;;;;;0.98;0.50;;;21.30;67.50;;;;;;5047505;28;20025;-43
2023/09/23 08:38:49;;;;;;;1.05;0.70;;;21.40;68.20;;;;;;5045927;28;20082;-48
2023/09/23 08:41:18;;;;;;;0.88;0.80;;;21.60;67.30;;;;;;5048934;28;20713;-43
2023/09/23 08:43:45;;;;;;;0.85;0.52;;;21.80;66.20;;;;;;5054526;28;20040;-44
2023/09/23 08:46:12;;;;;;;0.43;0.40;;;21.90;66.80;;;;;;5054961;28;20036;-45
2023/09/23 08:48:38;;;;;;;0.85;0.50;;;22.00;64.60;;;;;;5050053;28;20029;-43
2023/09/23 08:51:06;;;;;;;0.82;0.63;;;21.70;60.70;;;;;;5051651;28;20028;-43
2023/09/23 08:53:38;;;;;;;1.30;0.80;;;21.40;61.60;;;;;;5043258;28;20040;-43
2023/09/23 08:56:06;;;;;;;0.80;0.43;;;21.10;61.90;;;;;;5046588;28;20485;-44
2023/09/23 08:58:32;;;;;;;3.10;0.75;;;21.10;63.40;;;;;;5044946;28;20600;-43
2023/09/23 09:00:58;;;;;;;0.80;0.65;;;20.80;64.10;;;;;;5048227;28;20112;-44
2023/09/23 09:03:23;;;;;;;0.40;0.40;;;20.70;62.20;;;;;;5047274;28;20493;-43
2023/09/23 09:05:49;;;;;;;0.65;0.65;;;20.30;62.40;;;;;;5052868;28;20032;-45
2023/09/23 09:08:14;;;;;;;0.85;0.47;;;20.00;63.00;;;;;;5052164;28;20024;-46
2023/09/23 09:10:40;;;;;;;0.98;0.60;;;19.80;64.10;;;;;;5046176;28;20086;-44
2023/09/23 09:13:07;;;;;;;1.58;0.68;;;19.80;64.10;;;;;;5048889;28;20122;-47
2023/09/23 09:15:36;;;;;;;1.17;0.55;;;19.90;64.00;;;;;;5049894;28;20036;-43
2023/09/23 09:18:02;;;;;;;0.90;0.70;;;20.10;63.60;;;;;;5043327;28;20561;-44
2023/09/23 09:20:31;;;;;;;1.27;0.43;;;20.00;63.60;;;;;;5051001;28;20032;-45
2023/09/23 09:22:57;;;;;;;0.73;0.60;;;20.00;63.30;;;;;;5047275;28;20025;-45
2023/09/23 09:25:23;;;;;;;0.75;0.47;;;20.00;62.80;;;;;;5040787;28;20501;-43
2023/09/23 09:27:53;;;;;;;0.40;0.40;;;19.90;62.80;;;;;;5039344;28;20119;-45
2023/09/23 09:30:19;;;;;;;0.60;0.57;;;19.90;62.90;;;;;;5039860;28;20028;-43
2023/09/23 09:32:46;;;;;;;0.60;0.60;;;19.90;63.10;;;;;;5047947;28;20540;-44
2023/09/23 09:35:14;;;;;;;1.65;0.77;;;19.90;62.70;;;;;;5049358;28;20032;-43
2023/09/23 09:37:44;;;;;;;0.60;0.50;;;19.80;62.90;;;;;;5049876;28;20488;-45
2023/09/23 09:40:17;;;;;;;1.80;0.70;;;19.60;61.80;;;;;;5040470;28;20552;-44
2023/09/23 09:42:54;;;;;;;1.13;0.77;;;19.40;62.60;;;;;;5043874;28;20522;-43
2023/09/23 09:45:21;;;;;;;0.90;0.70;;;19.30;63.10;;;;;;5046133;28;20439;-42
2023/09/23 09:47:51;;;;;;;1.13;0.70;;;19.20;63.10;;;;;;5030262;28;20052;-45
2023/09/23 09:50:17;;;;;;;2.92;0.70;;;19.10;63.70;;;;;;5041655;28;20485;-43
2023/09/23 09:52:46;;;;;;;1.40;0.73;;;19.10;64.10;;;;;;5040909;28;20032;-47
2023/09/23 09:55:18;;;;;;;0.63;0.60;;;19.10;63.90;;;;;;5037884;28;20104;-46
2023/09/23 09:57:45;;;;;;;0.95;0.50;;;19.00;64.10;;;;;;5043251;28;20033;-46
2023/09/23 10:00:23;;;;;;;2.35;0.70;;;19.00;64.40;;;;;;5036558;28;20146;-43
2023/09/23 10:02:48;;;;;;;1.52;0.68;;;19.10;64.70;;;;;;5039280;28;20744;-45
2023/09/23 10:05:18;;;;;;;0.75;0.70;;;19.20;63.90;;;;;;5040348;28;20044;-46
2023/09/23 10:07:57;;;;;;;2.63;0.68;;;19.30;63.80;;;;;;5041457;28;20025;-44
2023/09/23 10:10:31;;;;;;;0.80;0.70;;;19.20;62.30;;;;;;5035732;28;20441;-45
2023/09/23 10:13:05;;;;;;;1.45;0.70;;;18.90;63.10;;;;;;5046377;28;20461;-43
2023/09/23 10:15:36;;;;;;;1.27;0.70;;;18.80;64.40;;;;;;5048510;28;20552;-45
2023/09/23 10:18:07;;;;;;;0.95;0.82;;;18.60;64.60;;;;;;5054853;28;20492;-43
2023/09/23 10:20:33;;;;;;;1.05;0.63;;;18.50;65.10;;;;;;5047973;28;20025;-43
2023/09/23 10:22:59;;;;;;;2.25;0.70;;;18.70;65.70;;;;;;5045349;28;20025;-43
2023/09/23 10:25:37;;;;;;;1.42;0.93;;;18.80;65.00;;;;;;5051408;28;20111;-42
2023/09/23 10:28:04;;;;;;;1.38;0.75;;;18.90;63.90;;;;;;5043838;28;20025;-45
2023/09/23 10:30:30;;;;;;;0.77;0.70;;;18.90;64.30;;;;;;5050090;28;20701;-45
2023/09/23 10:32:55;;;;;;;0.57;0.57;;;19.00;64.10;;;;;;5035107;28;20045;-43
2023/09/23 10:35:22;;;;;;;1.05;0.80;;;19.00;64.10;;;;;;5042325;28;20028;-44
2023/09/23 10:37:48;;;;;;;2.30;0.60;;;19.10;64.20;;;;;;5042193;28;20017;-50
2023/09/23 10:40:13;;;;;;;0.70;0.65;;;18.90;64.30;;;;;;5046840;28;20446;-59
2023/09/23 10:42:41;;;;;;;0.95;0.60;;;18.90;64.30;;;;;;5044751;28;20029;-58
2023/09/23 10:45:11;;;;;;;0.93;0.55;;;18.80;64.20;;;;;;5044043;28;20067;-57
2023/09/23 10:47:37;;;;;;;1.17;0.77;;;18.70;64.50;;;;;;5036243;28;20021;-59
2023/09/23 10:50:05;;;;;;;0.73;0.70;;;18.60;64.40;;;;;;5052306;28;20063;-59
2023/09/23 10:52:31;;;;;;;0.82;0.60;;;18.80;64.00;;;;;;5050170;28;20020;-59
2023/09/23 10:54:57;;;;;;;0.45;0.45;;;18.90;63.90;;;;;;5044180;28;20125;-60
2023/09/23 10:57:23;;;;;;;1.23;0.82;;;18.90;62.80;;;;;;5044477;28;20036;-59
2023/09/23 10:59:50;;;;;;;0.98;0.80;;;18.90;62.60;;;;;;5045301;28;20452;-58
2023/09/23 11:02:16;;;;;;;1.10;0.80;;;19.00;62.90;;;;;;5046664;28;20393;-59
2023/09/23 11:04:46;;;;;;;0.60;0.60;;;19.20;61.90;;;;;;5052802;28;20027;-59
2023/09/23 11:07:11;;;;;;;0.80;0.80;;;19.20;61.10;;;;;;5048875;28;20021;-59
2023/09/23 11:09:38;;;;;;;1.23;0.80;;;19.30;61.30;;;;;;5052404;28;20021;-59
2023/09/23 11:12:12;;;;;;;1.35;0.80;;;19.40;61.20;;;;;;5049394;28;20020;-59
2023/09/23 11:14:38;;;;;;;0.77;0.77;;;19.40;59.90;;;;;;5049329;28;20868;-59
2023/09/23 11:17:03;;;;;;;1.52;1.08;;;19.40;60.30;;;;;;5056450;28;20024;-59
2023/09/23 11:19:29;;;;;;;1.00;0.90;;;19.40;60.50;;;;;;5050917;28;20492;-59
2023/09/23 11:21:54;;;;;;;1.38;0.90;;;19.50;60.20;;;;;;5051949;28;20037;-59
2023/09/23 11:24:21;;;;;;;1.42;1.33;;;19.40;60.10;;;;;;5049936;28;20036;-60
2023/09/23 11:26:47;;;;;;;1.15;0.95;;;19.30;60.30;;;;;;5052445;28;20094;-60
2023/09/23 11:29:13;;;;;;;2.15;1.40;;;19.30;59.90;;;;;;5053988;28;20047;-59
2023/09/23 11:31:38;;;;;;;1.33;1.05;;;19.40;60.40;;;;;;5056614;28;20032;-62
2023/09/23 11:34:04;;;;;;;1.60;1.00;;;19.50;61.30;;;;;;5053480;28;20056;-60
2023/09/23 11:36:30;;;;;;;1.00;0.88;;;19.50;60.40;;;;;;5057208;28;20035;-60
2023/09/23 11:38:55;;;;;;;1.50;1.40;;;19.50;60.50;;;;;;5050595;28;20036;-59
2023/09/23 11:41:21;;;;;;;1.63;1.10;;;19.50;60.60;;;;;;5055100;28;20393;-58
2023/09/23 11:43:50;;;;;;;1.50;1.20;;;19.50;60.30;;;;;;5042958;28;20094;-59
2023/09/23 11:46:19;;;;;;;2.00;1.38;;;19.50;60.10;;;;;;5050335;28;20032;-58
2023/09/23 11:48:48;;;;;;;1.40;1.30;;;19.40;59.80;;;;;;5046691;28;20107;-59
2023/09/23 11:51:18;;;;;;;1.92;1.20;;;19.30;60.20;;;;;;5055131;28;20020;-59
2023/09/23 11:53:44;;;;;;;1.40;1.30;;;19.30;60.80;;;;;;5049789;28;20029;-59
2023/09/23 11:56:11;;;;;;;1.55;1.17;;;19.10;61.00;;;;;;5050382;28;20059;-59
2023/09/23 11:58:36;;;;;;;1.45;1.10;;;19.00;61.10;;;;;;5048948;28;20021;-59
2023/09/23 12:01:02;;;;;;;1.38;1.10;;;18.70;60.60;;;;;;5056894;28;20032;-58
2023/09/23 12:03:27;;;;;;;1.33;1.10;;;18.60;61.60;;;;;;5053484;28;20069;-57
2023/09/23 12:05:53;;;;;;;0.90;0.90;;;18.60;62.20;;;;;;5045358;28;20060;-60
2023/09/23 12:08:18;;;;;;;1.10;1.00;;;18.60;62.20;;;;;;5048958;28;20036;-59
2023/09/23 12:10:44;;;;;;;0.85;0.80;;;18.60;61.70;;;;;;5046973;28;20032;-60
2023/09/23 12:13:10;;;;;;;1.08;0.90;;;18.80;61.70;;;;;;5046700;28;20032;-59
2023/09/23 12:15:36;;;;;;;2.40;0.95;;;18.80;61.50;;;;;;5049343;28;20447;-59
2023/09/23 12:18:01;;;;;;;1.10;0.80;;;18.90;61.30;;;;;;5047002;28;20484;-60
2023/09/23 12:20:28;;;;;;;1.42;0.90;;;19.20;61.00;;;;;;5049936;28;20090;-59
2023/09/23 12:22:56;;;;;;;1.00;0.88;;;19.40;60.10;;;;;;5044045;28;21077;-59
2023/09/23 12:25:21;;;;;;;3.58;0.98;;;19.40;59.60;;;;;;5046307;28;20146;-59
2023/09/23 12:27:47;;;;;;;1.17;0.75;;;19.50;59.60;;;;;;5042715;28;20108;-59
2023/09/23 12:30:17;;;;;;;1.10;0.90;;;19.50;59.50;;;;;;5049122;28;20520;-60
2023/09/23 12:32:42;;;;;;;1.63;0.95;;;19.40;59.00;;;;;;5048051;28;20187;-59
2023/09/23 12:35:09;;;;;;;1.17;0.70;;;19.40;59.10;;;;;;5047393;28;20534;-59
2023/09/23 12:37:35;;;;;;;0.80;0.80;;;19.30;59.30;;;;;;5054825;28;20032;-59
2023/09/23 12:40:00;;;;;;;1.25;0.70;;;19.20;58.60;;;;;;5052972;28;20501;-60
2023/09/23 12:42:26;;;;;;;1.00;0.80;;;19.00;57.60;;;;;;5049297;28;20094;-59
2023/09/23 12:44:51;;;;;;;0.70;0.50;;;18.90;57.40;;;;;;5046739;28;20032;-59
2023/09/23 12:47:17;;;;;;;1.02;0.70;;;18.90;57.70;;;;;;5046388;28;20037;-59